Terminal Aerodrome Forecast
Issued by NWS

Home | Current Version | Previous Version | Text Only | Print | Product List | Glossary On
Versions: 1 2 3 4 5 6 7 8 9 10 11 12 13 14 15
000
FTUS42 KGSP 281425 AAA
TAFHKY
TAF AMD
KHKY 281425Z 2814/0112 VRB02KT P6SM SCT035 BKN250
     FM281800 21006KT P6SM BKN040 PROB30 2823/0103 4SM -SHRA OVC025
     FM010600 20008KT 4SM BR SCT010 BKN035=

USA.gov is the U.S. government's official web portal to all federal, state and local government web resources and services.